DAUG

Noumérat - Moufdi Zakaria Airport

Ghardaïa, Algeria
METAR DAUG 171400Z 36013KT CAVOK 21/06 Q1026
Observed Flight Rules
Dec-17 @ 14:00 UTC (56 minutes ago) Visual Flight Rules
Wind Visibility Clouds
360° at 13 knots 10,000+ meters
  • Clear skies
Temperatures Readings
Current 21°C / 70°F
Dewpoint 6°C / 43°F
Humidity 38%
Altimeter 30.3" Hg
Pressure 1026 hPa
Elevation 450
METAR DAUG 171400Z 36013KT CAVOK 21/06 Q1026
Observed Flight Rules
Dec-17 @ 14:00 UTC
(56 minutes ago)
VFR
Wind Visibility
360° at 13 knots 10,000+ meters
Clouds
  • Clear skies
Temperature Dewpoint
21°C / 70°F 6°C / 43°F
Humidity Altimeter Pressure
38% 30.3" Hg 1026 hPa